sensor_id;sensor_type;location;lat;lon;timestamp;P1;durP1;ratioP1;P2;durP2;ratioP2
22234;SDS011;11286;45.596;5.284;2022-12-18T00:00:41;58.95;;;32.20;;
22234;SDS011;11286;45.596;5.284;2022-12-18T00:03:07;62.63;;;33.63;;
22234;SDS011;11286;45.596;5.284;2022-12-18T00:05:34;62.35;;;31.25;;
22234;SDS011;11286;45.596;5.284;2022-12-18T00:08:00;58.35;;;32.25;;
22234;SDS011;11286;45.596;5.284;2022-12-18T00:10:26;57.45;;;30.92;;
22234;SDS011;11286;45.596;5.284;2022-12-18T00:12:52;60.70;;;31.50;;
22234;SDS011;11286;45.596;5.284;2022-12-18T00:15:18;68.78;;;33.45;;
22234;SDS011;11286;45.596;5.284;2022-12-18T00:17:44;63.63;;;33.22;;
22234;SDS011;11286;45.596;5.284;2022-12-18T00:20:09;58.25;;;31.02;;
22234;SDS011;11286;45.596;5.284;2022-12-18T00:22:35;58.13;;;29.55;;
22234;SDS011;11286;45.596;5.284;2022-12-18T00:25:01;61.55;;;28.52;;
22234;SDS011;11286;45.596;5.284;2022-12-18T00:27:27;57.78;;;27.63;;
22234;SDS011;11286;45.596;5.284;2022-12-18T00:29:52;54.03;;;25.13;;
22234;SDS011;11286;45.596;5.284;2022-12-18T00:32:18;58.60;;;25.80;;
22234;SDS011;11286;45.596;5.284;2022-12-18T00:34:44;55.00;;;25.35;;
22234;SDS011;11286;45.596;5.284;2022-12-18T00:37:09;48.80;;;23.17;;
22234;SDS011;11286;45.596;5.284;2022-12-18T00:39:35;59.00;;;26.02;;
22234;SDS011;11286;45.596;5.284;2022-12-18T00:42:00;52.03;;;24.50;;
22234;SDS011;11286;45.596;5.284;2022-12-18T00:44:44;55.60;;;26.25;;
22234;SDS011;11286;45.596;5.284;2022-12-18T00:47:10;57.67;;;27.83;;
22234;SDS011;11286;45.596;5.284;2022-12-18T00:49:35;57.25;;;25.67;;
22234;SDS011;11286;45.596;5.284;2022-12-18T00:52:01;58.35;;;27.55;;
22234;SDS011;11286;45.596;5.284;2022-12-18T00:54:27;59.55;;;27.42;;
22234;SDS011;11286;45.596;5.284;2022-12-18T00:56:52;61.13;;;26.98;;
22234;SDS011;11286;45.596;5.284;2022-12-18T00:59:20;56.65;;;26.35;;
22234;SDS011;11286;45.596;5.284;2022-12-18T01:01:46;57.47;;;27.52;;
22234;SDS011;11286;45.596;5.284;2022-12-18T01:04:12;60.10;;;28.10;;
22234;SDS011;11286;45.596;5.284;2022-12-18T01:06:38;62.65;;;28.35;;
22234;SDS011;11286;45.596;5.284;2022-12-18T01:09:04;62.15;;;27.60;;
22234;SDS011;11286;45.596;5.284;2022-12-18T01:11:30;61.53;;;27.25;;
22234;SDS011;11286;45.596;5.284;2022-12-18T01:13:55;61.78;;;28.23;;
22234;SDS011;11286;45.596;5.284;2022-12-18T01:16:21;64.57;;;28.90;;
22234;SDS011;11286;45.596;5.284;2022-12-18T01:18:50;63.75;;;29.38;;
22234;SDS011;11286;45.596;5.284;2022-12-18T01:21:17;66.40;;;29.60;;
22234;SDS011;11286;45.596;5.284;2022-12-18T01:23:42;62.47;;;28.55;;
22234;SDS011;11286;45.596;5.284;2022-12-18T01:26:09;62.72;;;27.83;;
22234;SDS011;11286;45.596;5.284;2022-12-18T01:28:37;63.15;;;29.00;;
22234;SDS011;11286;45.596;5.284;2022-12-18T01:31:10;71.85;;;30.63;;
22234;SDS011;11286;45.596;5.284;2022-12-18T01:33:35;64.03;;;30.23;;
22234;SDS011;11286;45.596;5.284;2022-12-18T01:36:01;64.03;;;28.65;;
22234;SDS011;11286;45.596;5.284;2022-12-18T01:38:28;64.57;;;30.45;;
22234;SDS011;11286;45.596;5.284;2022-12-18T01:41:00;71.25;;;29.95;;
22234;SDS011;11286;45.596;5.284;2022-12-18T01:43:46;67.10;;;29.35;;
22234;SDS011;11286;45.596;5.284;2022-12-18T01:46:16;70.43;;;30.38;;
22234;SDS011;11286;45.596;5.284;2022-12-18T01:48:43;70.07;;;29.13;;
22234;SDS011;11286;45.596;5.284;2022-12-18T01:51:11;63.83;;;29.13;;
22234;SDS011;11286;45.596;5.284;2022-12-18T01:53:38;66.63;;;30.10;;
22234;SDS011;11286;45.596;5.284;2022-12-18T01:56:06;69.35;;;30.50;;
22234;SDS011;11286;45.596;5.284;2022-12-18T01:58:35;65.18;;;29.02;;
22234;SDS011;11286;45.596;5.284;2022-12-18T02:01:05;63.08;;;28.95;;
22234;SDS011;11286;45.596;5.284;2022-12-18T02:03:31;63.90;;;29.70;;
22234;SDS011;11286;45.596;5.284;2022-12-18T02:06:16;68.82;;;29.98;;
22234;SDS011;11286;45.596;5.284;2022-12-18T02:28:06;62.20;;;27.70;;
22234;SDS011;11286;45.596;5.284;2022-12-18T02:30:36;59.97;;;27.90;;
22234;SDS011;11286;45.596;5.284;2022-12-18T02:33:05;58.80;;;26.95;;
22234;SDS011;11286;45.596;5.284;2022-12-18T02:35:33;60.08;;;26.80;;
22234;SDS011;11286;45.596;5.284;2022-12-18T02:38:00;56.83;;;27.08;;
22234;SDS011;11286;45.596;5.284;2022-12-18T02:40:28;56.00;;;27.92;;
22234;SDS011;11286;45.596;5.284;2022-12-18T02:42:54;54.55;;;26.40;;
22234;SDS011;11286;45.596;5.284;2022-12-18T02:45:20;54.47;;;26.90;;
22234;SDS011;11286;45.596;5.284;2022-12-18T02:47:47;55.15;;;26.80;;
22234;SDS011;11286;45.596;5.284;2022-12-18T02:50:30;55.70;;;27.45;;
22234;SDS011;11286;45.596;5.284;2022-12-18T02:53:24;56.42;;;27.65;;
22234;SDS011;11286;45.596;5.284;2022-12-18T03:01:24;57.30;;;27.25;;
22234;SDS011;11286;45.596;5.284;2022-12-18T03:04:24;53.28;;;25.23;;
22234;SDS011;11286;45.596;5.284;2022-12-18T03:06:54;52.92;;;25.80;;
22234;SDS011;11286;45.596;5.284;2022-12-18T03:09:30;58.63;;;25.85;;
22234;SDS011;11286;45.596;5.284;2022-12-18T03:12:15;59.22;;;26.17;;
22234;SDS011;11286;45.596;5.284;2022-12-18T03:15:04;54.78;;;25.98;;
22234;SDS011;11286;45.596;5.284;2022-12-18T03:17:33;53.10;;;24.75;;
22234;SDS011;11286;45.596;5.284;2022-12-18T03:20:06;56.95;;;26.02;;
22234;SDS011;11286;45.596;5.284;2022-12-18T03:22:38;54.05;;;25.60;;
22234;SDS011;11286;45.596;5.284;2022-12-18T03:25:07;51.70;;;26.55;;
22234;SDS011;11286;45.596;5.284;2022-12-18T03:27:38;54.38;;;26.20;;
22234;SDS011;11286;45.596;5.284;2022-12-18T03:30:10;57.80;;;26.95;;
22234;SDS011;11286;45.596;5.284;2022-12-18T03:35:16;53.00;;;25.50;;
22234;SDS011;11286;45.596;5.284;2022-12-18T03:37:46;55.28;;;25.83;;
22234;SDS011;11286;45.596;5.284;2022-12-18T03:40:11;50.25;;;25.67;;
22234;SDS011;11286;45.596;5.284;2022-12-18T03:42:47;51.78;;;26.40;;
22234;SDS011;11286;45.596;5.284;2022-12-18T03:45:21;52.72;;;25.08;;
22234;SDS011;11286;45.596;5.284;2022-12-18T03:47:58;51.17;;;24.48;;
22234;SDS011;11286;45.596;5.284;2022-12-18T03:53:29;49.85;;;24.17;;
22234;SDS011;11286;45.596;5.284;2022-12-18T03:56:12;50.22;;;24.60;;
22234;SDS011;11286;45.596;5.284;2022-12-18T03:58:41;46.88;;;23.95;;
22234;SDS011;11286;45.596;5.284;2022-12-18T04:01:08;53.05;;;24.65;;
22234;SDS011;11286;45.596;5.284;2022-12-18T04:03:38;52.13;;;25.27;;
22234;SDS011;11286;45.596;5.284;2022-12-18T04:06:04;54.90;;;26.50;;
22234;SDS011;11286;45.596;5.284;2022-12-18T04:08:31;51.17;;;24.70;;
22234;SDS011;11286;45.596;5.284;2022-12-18T04:10:59;46.22;;;25.65;;
22234;SDS011;11286;45.596;5.284;2022-12-18T04:13:29;48.50;;;24.85;;
22234;SDS011;11286;45.596;5.284;2022-12-18T04:16:00;49.03;;;24.05;;
22234;SDS011;11286;45.596;5.284;2022-12-18T04:18:26;49.88;;;24.92;;
22234;SDS011;11286;45.596;5.284;2022-12-18T04:20:51;47.53;;;24.45;;
22234;SDS011;11286;45.596;5.284;2022-12-18T04:23:17;50.95;;;25.27;;
22234;SDS011;11286;45.596;5.284;2022-12-18T04:25:43;48.53;;;23.65;;
22234;SDS011;11286;45.596;5.284;2022-12-18T04:28:09;49.67;;;24.88;;
22234;SDS011;11286;45.596;5.284;2022-12-18T04:30:34;48.50;;;23.85;;
22234;SDS011;11286;45.596;5.284;2022-12-18T04:33:00;52.08;;;24.92;;
22234;SDS011;11286;45.596;5.284;2022-12-18T04:35:26;46.80;;;23.50;;
22234;SDS011;11286;45.596;5.284;2022-12-18T04:37:52;50.28;;;23.77;;
22234;SDS011;11286;45.596;5.284;2022-12-18T04:40:17;48.90;;;23.40;;
22234;SDS011;11286;45.596;5.284;2022-12-18T04:42:43;49.90;;;22.88;;
22234;SDS011;11286;45.596;5.284;2022-12-18T04:45:08;51.15;;;24.45;;
22234;SDS011;11286;45.596;5.284;2022-12-18T04:47:35;45.58;;;24.15;;
22234;SDS011;11286;45.596;5.284;2022-12-18T04:50:00;51.92;;;23.80;;
22234;SDS011;11286;45.596;5.284;2022-12-18T04:52:26;46.20;;;22.90;;
22234;SDS011;11286;45.596;5.284;2022-12-18T04:54:52;50.88;;;24.35;;
22234;SDS011;11286;45.596;5.284;2022-12-18T04:57:17;45.42;;;22.27;;
22234;SDS011;11286;45.596;5.284;2022-12-18T04:59:43;51.10;;;24.23;;
22234;SDS011;11286;45.596;5.284;2022-12-18T05:02:09;45.30;;;22.95;;
22234;SDS011;11286;45.596;5.284;2022-12-18T05:04:35;46.70;;;22.80;;
22234;SDS011;11286;45.596;5.284;2022-12-18T05:07:00;44.17;;;22.05;;
22234;SDS011;11286;45.596;5.284;2022-12-18T05:09:26;46.75;;;22.15;;
22234;SDS011;11286;45.596;5.284;2022-12-18T05:11:52;46.08;;;21.80;;
22234;SDS011;11286;45.596;5.284;2022-12-18T05:14:17;45.67;;;21.05;;
22234;SDS011;11286;45.596;5.284;2022-12-18T05:16:43;43.03;;;22.13;;
22234;SDS011;11286;45.596;5.284;2022-12-18T05:19:08;52.50;;;23.98;;
22234;SDS011;11286;45.596;5.284;2022-12-18T05:21:34;48.92;;;22.92;;
22234;SDS011;11286;45.596;5.284;2022-12-18T05:24:00;46.17;;;23.10;;
22234;SDS011;11286;45.596;5.284;2022-12-18T05:26:25;48.35;;;24.10;;
22234;SDS011;11286;45.596;5.284;2022-12-18T05:28:51;46.28;;;23.55;;
22234;SDS011;11286;45.596;5.284;2022-12-18T05:31:17;48.08;;;23.17;;
22234;SDS011;11286;45.596;5.284;2022-12-18T05:33:42;47.90;;;23.35;;
22234;SDS011;11286;45.596;5.284;2022-12-18T05:36:09;46.88;;;23.77;;
22234;SDS011;11286;45.596;5.284;2022-12-18T05:38:36;46.60;;;24.27;;
22234;SDS011;11286;45.596;5.284;2022-12-18T05:41:03;48.58;;;24.13;;
22234;SDS011;11286;45.596;5.284;2022-12-18T05:43:29;45.50;;;21.80;;
22234;SDS011;11286;45.596;5.284;2022-12-18T05:45:55;48.95;;;23.27;;
22234;SDS011;11286;45.596;5.284;2022-12-18T05:48:22;43.63;;;22.40;;
22234;SDS011;11286;45.596;5.284;2022-12-18T05:50:48;46.88;;;22.20;;
22234;SDS011;11286;45.596;5.284;2022-12-18T05:53:15;48.17;;;23.05;;
22234;SDS011;11286;45.596;5.284;2022-12-18T05:55:42;47.60;;;23.38;;
22234;SDS011;11286;45.596;5.284;2022-12-18T05:58:09;41.70;;;22.70;;
22234;SDS011;11286;45.596;5.284;2022-12-18T06:00:37;44.58;;;22.00;;
22234;SDS011;11286;45.596;5.284;2022-12-18T06:03:07;45.97;;;22.08;;
22234;SDS011;11286;45.596;5.284;2022-12-18T06:05:37;45.40;;;22.15;;
22234;SDS011;11286;45.596;5.284;2022-12-18T06:08:05;45.58;;;22.75;;
22234;SDS011;11286;45.596;5.284;2022-12-18T06:10:31;46.42;;;22.40;;
22234;SDS011;11286;45.596;5.284;2022-12-18T06:12:57;44.17;;;21.13;;
22234;SDS011;11286;45.596;5.284;2022-12-18T06:15:23;43.08;;;21.83;;
22234;SDS011;11286;45.596;5.284;2022-12-18T06:17:49;40.60;;;21.10;;
22234;SDS011;11286;45.596;5.284;2022-12-18T06:20:15;48.28;;;22.05;;
22234;SDS011;11286;45.596;5.284;2022-12-18T06:22:40;44.42;;;21.20;;
22234;SDS011;11286;45.596;5.284;2022-12-18T06:25:06;43.65;;;20.38;;
22234;SDS011;11286;45.596;5.284;2022-12-18T06:27:32;40.78;;;20.13;;
22234;SDS011;11286;45.596;5.284;2022-12-18T06:29:58;38.55;;;20.33;;
22234;SDS011;11286;45.596;5.284;2022-12-18T06:32:25;41.08;;;20.02;;
22234;SDS011;11286;45.596;5.284;2022-12-18T06:34:51;40.50;;;20.30;;
22234;SDS011;11286;45.596;5.284;2022-12-18T06:37:16;38.50;;;19.10;;
22234;SDS011;11286;45.596;5.284;2022-12-18T06:39:42;40.05;;;19.95;;
22234;SDS011;11286;45.596;5.284;2022-12-18T06:42:08;43.05;;;20.35;;
22234;SDS011;11286;45.596;5.284;2022-12-18T06:44:33;40.70;;;19.63;;
22234;SDS011;11286;45.596;5.284;2022-12-18T06:46:59;40.92;;;20.08;;
22234;SDS011;11286;45.596;5.284;2022-12-18T06:49:25;44.60;;;22.33;;
22234;SDS011;11286;45.596;5.284;2022-12-18T06:51:50;44.08;;;20.40;;
22234;SDS011;11286;45.596;5.284;2022-12-18T06:54:16;40.58;;;21.88;;
22234;SDS011;11286;45.596;5.284;2022-12-18T06:56:44;40.35;;;21.33;;
22234;SDS011;11286;45.596;5.284;2022-12-18T06:59:10;42.70;;;21.00;;
22234;SDS011;11286;45.596;5.284;2022-12-18T07:01:37;42.65;;;21.80;;
22234;SDS011;11286;45.596;5.284;2022-12-18T07:04:02;42.92;;;21.08;;
22234;SDS011;11286;45.596;5.284;2022-12-18T07:06:28;43.33;;;20.65;;
22234;SDS011;11286;45.596;5.284;2022-12-18T07:08:54;42.53;;;20.27;;
22234;SDS011;11286;45.596;5.284;2022-12-18T07:11:20;39.95;;;20.10;;
22234;SDS011;11286;45.596;5.284;2022-12-18T07:13:46;42.20;;;22.77;;
22234;SDS011;11286;45.596;5.284;2022-12-18T07:16:13;46.08;;;22.77;;
22234;SDS011;11286;45.596;5.284;2022-12-18T07:18:40;39.40;;;20.52;;
22234;SDS011;11286;45.596;5.284;2022-12-18T07:21:07;42.50;;;21.10;;
22234;SDS011;11286;45.596;5.284;2022-12-18T07:23:37;39.15;;;20.60;;
22234;SDS011;11286;45.596;5.284;2022-12-18T07:26:03;44.33;;;23.00;;
22234;SDS011;11286;45.596;5.284;2022-12-18T07:28:30;42.35;;;22.15;;
22234;SDS011;11286;45.596;5.284;2022-12-18T07:30:57;38.05;;;21.23;;
22234;SDS011;11286;45.596;5.284;2022-12-18T07:33:23;46.53;;;25.50;;
22234;SDS011;11286;45.596;5.284;2022-12-18T07:35:49;40.38;;;23.23;;
22234;SDS011;11286;45.596;5.284;2022-12-18T07:38:15;42.22;;;22.95;;
22234;SDS011;11286;45.596;5.284;2022-12-18T07:40:41;40.63;;;21.58;;
22234;SDS011;11286;45.596;5.284;2022-12-18T07:43:06;40.95;;;23.98;;
22234;SDS011;11286;45.596;5.284;2022-12-18T07:45:32;41.10;;;24.75;;
22234;SDS011;11286;45.596;5.284;2022-12-18T07:47:57;38.55;;;21.77;;
22234;SDS011;11286;45.596;5.284;2022-12-18T07:50:23;35.17;;;19.88;;
22234;SDS011;11286;45.596;5.284;2022-12-18T07:52:48;39.50;;;23.48;;
22234;SDS011;11286;45.596;5.284;2022-12-18T07:55:14;39.63;;;22.88;;
22234;SDS011;11286;45.596;5.284;2022-12-18T07:57:40;38.30;;;22.35;;
22234;SDS011;11286;45.596;5.284;2022-12-18T08:00:06;40.08;;;23.95;;
22234;SDS011;11286;45.596;5.284;2022-12-18T08:02:32;35.45;;;22.45;;
22234;SDS011;11286;45.596;5.284;2022-12-18T08:04:58;32.47;;;21.50;;
22234;SDS011;11286;45.596;5.284;2022-12-18T08:07:24;33.67;;;20.73;;
22234;SDS011;11286;45.596;5.284;2022-12-18T08:09:49;23.95;;;16.77;;
22234;SDS011;11286;45.596;5.284;2022-12-18T08:12:15;26.40;;;16.88;;
22234;SDS011;11286;45.596;5.284;2022-12-18T08:14:40;21.88;;;15.07;;
22234;SDS011;11286;45.596;5.284;2022-12-18T08:17:06;23.35;;;15.30;;
22234;SDS011;11286;45.596;5.284;2022-12-18T08:19:32;23.48;;;14.77;;
22234;SDS011;11286;45.596;5.284;2022-12-18T08:21:57;20.63;;;13.68;;
22234;SDS011;11286;45.596;5.284;2022-12-18T08:24:23;19.83;;;14.00;;
22234;SDS011;11286;45.596;5.284;2022-12-18T08:26:49;19.38;;;13.70;;
22234;SDS011;11286;45.596;5.284;2022-12-18T08:29:15;18.13;;;12.35;;
22234;SDS011;11286;45.596;5.284;2022-12-18T08:31:41;17.00;;;12.10;;
22234;SDS011;11286;45.596;5.284;2022-12-18T08:34:07;16.67;;;12.32;;
22234;SDS011;11286;45.596;5.284;2022-12-18T08:36:33;16.45;;;11.65;;
22234;SDS011;11286;45.596;5.284;2022-12-18T08:38:58;16.00;;;11.45;;
22234;SDS011;11286;45.596;5.284;2022-12-18T08:41:24;15.10;;;11.32;;
22234;SDS011;11286;45.596;5.284;2022-12-18T08:43:50;15.18;;;11.48;;
22234;SDS011;11286;45.596;5.284;2022-12-18T08:46:38;15.95;;;11.75;;
22234;SDS011;11286;45.596;5.284;2022-12-18T08:49:06;15.68;;;11.00;;
22234;SDS011;11286;45.596;5.284;2022-12-18T08:51:33;13.35;;;10.30;;
22234;SDS011;11286;45.596;5.284;2022-12-18T08:53:58;14.63;;;10.65;;
22234;SDS011;11286;45.596;5.284;2022-12-18T08:56:24;11.30;;;9.82;;
22234;SDS011;11286;45.596;5.284;2022-12-18T08:58:53;11.43;;;9.90;;
22234;SDS011;11286;45.596;5.284;2022-12-18T09:01:19;12.30;;;9.57;;
22234;SDS011;11286;45.596;5.284;2022-12-18T09:03:46;13.93;;;10.70;;
22234;SDS011;11286;45.596;5.284;2022-12-18T09:06:15;13.80;;;10.82;;
22234;SDS011;11286;45.596;5.284;2022-12-18T09:08:42;13.85;;;9.75;;
22234;SDS011;11286;45.596;5.284;2022-12-18T09:11:13;11.75;;;9.82;;
22234;SDS011;11286;45.596;5.284;2022-12-18T09:13:40;13.90;;;10.85;;
22234;SDS011;11286;45.596;5.284;2022-12-18T09:16:06;15.80;;;11.32;;
22234;SDS011;11286;45.596;5.284;2022-12-18T09:18:32;12.98;;;10.93;;
22234;SDS011;11286;45.596;5.284;2022-12-18T09:20:57;12.85;;;10.88;;
22234;SDS011;11286;45.596;5.284;2022-12-18T09:23:23;14.85;;;11.13;;
22234;SDS011;11286;45.596;5.284;2022-12-18T09:25:48;13.00;;;10.77;;
22234;SDS011;11286;45.596;5.284;2022-12-18T09:28:16;13.18;;;10.55;;
22234;SDS011;11286;45.596;5.284;2022-12-18T09:30:43;14.10;;;10.98;;
22234;SDS011;11286;45.596;5.284;2022-12-18T09:33:13;12.68;;;10.80;;
22234;SDS011;11286;45.596;5.284;2022-12-18T09:35:40;12.55;;;10.85;;
22234;SDS011;11286;45.596;5.284;2022-12-18T09:38:07;13.35;;;10.80;;
22234;SDS011;11286;45.596;5.284;2022-12-18T09:40:36;13.55;;;10.55;;
22234;SDS011;11286;45.596;5.284;2022-12-18T09:43:09;11.63;;;10.32;;
22234;SDS011;11286;45.596;5.284;2022-12-18T09:45:43;11.18;;;9.95;;
22234;SDS011;11286;45.596;5.284;2022-12-18T09:48:32;12.98;;;10.45;;
22234;SDS011;11286;45.596;5.284;2022-12-18T09:51:03;12.63;;;10.73;;
22234;SDS011;11286;45.596;5.284;2022-12-18T09:53:40;14.30;;;10.60;;
22234;SDS011;11286;45.596;5.284;2022-12-18T09:56:16;13.57;;;9.52;;
22234;SDS011;11286;45.596;5.284;2022-12-18T09:58:49;18.25;;;10.77;;
22234;SDS011;11286;45.596;5.284;2022-12-18T10:01:22;12.07;;;9.15;;
22234;SDS011;11286;45.596;5.284;2022-12-18T10:03:49;12.50;;;9.13;;
22234;SDS011;11286;45.596;5.284;2022-12-18T10:08:59;10.82;;;9.07;;
22234;SDS011;11286;45.596;5.284;2022-12-18T10:20:43;12.38;;;9.60;;
22234;SDS011;11286;45.596;5.284;2022-12-18T10:23:33;12.30;;;10.32;;
22234;SDS011;11286;45.596;5.284;2022-12-18T10:26:22;12.48;;;10.23;;
22234;SDS011;11286;45.596;5.284;2022-12-18T10:28:49;13.18;;;10.38;;
22234;SDS011;11286;45.596;5.284;2022-12-18T10:31:21;14.27;;;10.48;;
22234;SDS011;11286;45.596;5.284;2022-12-18T10:33:48;14.20;;;10.68;;
22234;SDS011;11286;45.596;5.284;2022-12-18T10:36:14;13.68;;;10.02;;
22234;SDS011;11286;45.596;5.284;2022-12-18T10:38:39;14.75;;;10.13;;
22234;SDS011;11286;45.596;5.284;2022-12-18T10:43:44;14.85;;;10.55;;
22234;SDS011;11286;45.596;5.284;2022-12-18T10:48:37;13.90;;;11.23;;
22234;SDS011;11286;45.596;5.284;2022-12-18T10:51:26;14.73;;;11.98;;
22234;SDS011;11286;45.596;5.284;2022-12-18T10:54:00;12.18;;;10.52;;
22234;SDS011;11286;45.596;5.284;2022-12-18T10:56:43;13.00;;;11.50;;
22234;SDS011;11286;45.596;5.284;2022-12-18T10:59:10;12.27;;;10.98;;
22234;SDS011;11286;45.596;5.284;2022-12-18T11:01:45;13.20;;;10.77;;
22234;SDS011;11286;45.596;5.284;2022-12-18T11:04:19;12.05;;;10.75;;
22234;SDS011;11286;45.596;5.284;2022-12-18T11:07:01;12.73;;;11.07;;
22234;SDS011;11286;45.596;5.284;2022-12-18T11:09:32;13.18;;;10.77;;
22234;SDS011;11286;45.596;5.284;2022-12-18T11:12:00;14.50;;;10.20;;
22234;SDS011;11286;45.596;5.284;2022-12-18T11:14:29;12.10;;;9.88;;
22234;SDS011;11286;45.596;5.284;2022-12-18T11:16:58;12.95;;;10.40;;
22234;SDS011;11286;45.596;5.284;2022-12-18T11:21:56;11.10;;;9.77;;
22234;SDS011;11286;45.596;5.284;2022-12-18T11:24:28;11.75;;;10.15;;
22234;SDS011;11286;45.596;5.284;2022-12-18T11:27:00;11.13;;;9.07;;
22234;SDS011;11286;45.596;5.284;2022-12-18T11:29:35;11.25;;;9.95;;
22234;SDS011;11286;45.596;5.284;2022-12-18T11:34:50;19.95;;;16.92;;
22234;SDS011;11286;45.596;5.284;2022-12-18T11:37:20;9.85;;;8.85;;
22234;SDS011;11286;45.596;5.284;2022-12-18T11:39:49;11.27;;;9.18;;
22234;SDS011;11286;45.596;5.284;2022-12-18T11:42:24;10.25;;;9.05;;
22234;SDS011;11286;45.596;5.284;2022-12-18T11:47:45;10.98;;;7.80;;
22234;SDS011;11286;45.596;5.284;2022-12-18T11:50:39;8.90;;;7.13;;
22234;SDS011;11286;45.596;5.284;2022-12-18T11:53:10;9.75;;;7.10;;
22234;SDS011;11286;45.596;5.284;2022-12-18T11:55:39;7.45;;;6.20;;
22234;SDS011;11286;45.596;5.284;2022-12-18T12:00:36;7.45;;;6.38;;
22234;SDS011;11286;45.596;5.284;2022-12-18T12:17:42;5.35;;;4.47;;
22234;SDS011;11286;45.596;5.284;2022-12-18T12:25:44;5.78;;;5.00;;
22234;SDS011;11286;45.596;5.284;2022-12-18T12:36:35;5.40;;;4.85;;
22234;SDS011;11286;45.596;5.284;2022-12-18T12:39:26;6.65;;;5.03;;
22234;SDS011;11286;45.596;5.284;2022-12-18T12:41:58;5.60;;;4.60;;
22234;SDS011;11286;45.596;5.284;2022-12-18T12:44:45;6.43;;;5.30;;
22234;SDS011;11286;45.596;5.284;2022-12-18T12:47:25;8.25;;;5.25;;
22234;SDS011;11286;45.596;5.284;2022-12-18T12:49:56;5.50;;;4.97;;
22234;SDS011;11286;45.596;5.284;2022-12-18T12:52:32;5.65;;;5.05;;
22234;SDS011;11286;45.596;5.284;2022-12-18T12:55:00;5.82;;;5.22;;
22234;SDS011;11286;45.596;5.284;2022-12-18T12:57:36;5.85;;;5.25;;
22234;SDS011;11286;45.596;5.284;2022-12-18T13:02:42;7.30;;;5.22;;
22234;SDS011;11286;45.596;5.284;2022-12-18T13:08:01;6.15;;;5.25;;
22234;SDS011;11286;45.596;5.284;2022-12-18T13:10:37;5.95;;;5.13;;
22234;SDS011;11286;45.596;5.284;2022-12-18T13:20:35;6.57;;;5.03;;
22234;SDS011;11286;45.596;5.284;2022-12-18T13:25:50;4.78;;;4.20;;
22234;SDS011;11286;45.596;5.284;2022-12-18T13:31:01;5.38;;;4.47;;
22234;SDS011;11286;45.596;5.284;2022-12-18T13:33:36;5.82;;;4.97;;
22234;SDS011;11286;45.596;5.284;2022-12-18T13:38:39;8.57;;;5.05;;
22234;SDS011;11286;45.596;5.284;2022-12-18T13:43:52;7.50;;;5.07;;
22234;SDS011;11286;45.596;5.284;2022-12-18T13:46:24;6.68;;;5.03;;
22234;SDS011;11286;45.596;5.284;2022-12-18T13:49:29;7.30;;;4.60;;
22234;SDS011;11286;45.596;5.284;2022-12-18T13:52:03;5.78;;;4.95;;
22234;SDS011;11286;45.596;5.284;2022-12-18T13:54:56;6.47;;;4.63;;
22234;SDS011;11286;45.596;5.284;2022-12-18T13:57:28;6.05;;;4.75;;
22234;SDS011;11286;45.596;5.284;2022-12-18T14:00:14;7.68;;;4.90;;
22234;SDS011;11286;45.596;5.284;2022-12-18T14:02:48;7.80;;;5.00;;
22234;SDS011;11286;45.596;5.284;2022-12-18T14:07:51;6.60;;;4.65;;
22234;SDS011;11286;45.596;5.284;2022-12-18T14:10:18;6.60;;;4.85;;
22234;SDS011;11286;45.596;5.284;2022-12-18T14:12:45;5.85;;;4.10;;
22234;SDS011;11286;45.596;5.284;2022-12-18T14:15:34;5.30;;;4.10;;
22234;SDS011;11286;45.596;5.284;2022-12-18T14:20:48;6.00;;;4.40;;
22234;SDS011;11286;45.596;5.284;2022-12-18T14:23:28;6.68;;;4.75;;
22234;SDS011;11286;45.596;5.284;2022-12-18T14:26:00;5.68;;;4.85;;
22234;SDS011;11286;45.596;5.284;2022-12-18T14:28:28;6.68;;;4.57;;
22234;SDS011;11286;45.596;5.284;2022-12-18T14:30:54;7.05;;;4.38;;
22234;SDS011;11286;45.596;5.284;2022-12-18T14:33:22;6.28;;;4.00;;
22234;SDS011;11286;45.596;5.284;2022-12-18T14:38:35;6.88;;;4.47;;
22234;SDS011;11286;45.596;5.284;2022-12-18T14:41:10;8.88;;;5.15;;
22234;SDS011;11286;45.596;5.284;2022-12-18T14:43:37;8.30;;;5.10;;
22234;SDS011;11286;45.596;5.284;2022-12-18T14:46:06;7.25;;;4.85;;
22234;SDS011;11286;45.596;5.284;2022-12-18T14:49:02;5.78;;;5.00;;
22234;SDS011;11286;45.596;5.284;2022-12-18T14:51:48;7.63;;;4.78;;
22234;SDS011;11286;45.596;5.284;2022-12-18T14:54:24;5.97;;;4.85;;
22234;SDS011;11286;45.596;5.284;2022-12-18T14:56:51;6.97;;;4.38;;
22234;SDS011;11286;45.596;5.284;2022-12-18T14:59:23;8.18;;;5.75;;
22234;SDS011;11286;45.596;5.284;2022-12-18T15:04:35;7.50;;;6.50;;
22234;SDS011;11286;45.596;5.284;2022-12-18T15:09:42;11.40;;;7.78;;
22234;SDS011;11286;45.596;5.284;2022-12-18T15:12:37;11.20;;;7.43;;
22234;SDS011;11286;45.596;5.284;2022-12-18T15:15:43;12.18;;;8.30;;
22234;SDS011;11286;45.596;5.284;2022-12-18T15:18:01;8.85;;;7.15;;
22234;SDS011;11286;45.596;5.284;2022-12-18T15:20:27;11.10;;;7.43;;
22234;SDS011;11286;45.596;5.284;2022-12-18T15:22:52;9.65;;;7.53;;
22234;SDS011;11286;45.596;5.284;2022-12-18T15:25:36;9.43;;;7.55;;
22234;SDS011;11286;45.596;5.284;2022-12-18T15:28:04;9.23;;;7.90;;
22234;SDS011;11286;45.596;5.284;2022-12-18T15:30:58;10.55;;;7.57;;
22234;SDS011;11286;45.596;5.284;2022-12-18T15:33:37;10.55;;;8.23;;
22234;SDS011;11286;45.596;5.284;2022-12-18T15:36:24;10.93;;;8.95;;
22234;SDS011;11286;45.596;5.284;2022-12-18T15:38:54;10.10;;;8.90;;
22234;SDS011;11286;45.596;5.284;2022-12-18T15:41:21;10.60;;;8.48;;
22234;SDS011;11286;45.596;5.284;2022-12-18T15:43:48;9.75;;;8.10;;
22234;SDS011;11286;45.596;5.284;2022-12-18T15:46:16;9.82;;;7.88;;
22234;SDS011;11286;45.596;5.284;2022-12-18T15:48:50;10.55;;;8.35;;
22234;SDS011;11286;45.596;5.284;2022-12-18T15:51:31;11.93;;;9.15;;
22234;SDS011;11286;45.596;5.284;2022-12-18T15:54:00;14.13;;;8.43;;
22234;SDS011;11286;45.596;5.284;2022-12-18T15:56:28;11.98;;;7.68;;
22234;SDS011;11286;45.596;5.284;2022-12-18T15:59:14;10.27;;;8.40;;
22234;SDS011;11286;45.596;5.284;2022-12-18T16:01:43;6.18;;;4.68;;
22234;SDS011;11286;45.596;5.284;2022-12-18T16:04:14;11.40;;;8.23;;
22234;SDS011;11286;45.596;5.284;2022-12-18T16:06:41;9.65;;;6.55;;
22234;SDS011;11286;45.596;5.284;2022-12-18T16:09:07;11.07;;;8.93;;
22234;SDS011;11286;45.596;5.284;2022-12-18T16:11:34;12.57;;;8.77;;
22234;SDS011;11286;45.596;5.284;2022-12-18T16:14:20;11.52;;;7.40;;
22234;SDS011;11286;45.596;5.284;2022-12-18T16:16:48;8.82;;;7.28;;
22234;SDS011;11286;45.596;5.284;2022-12-18T16:19:16;11.38;;;8.85;;
22234;SDS011;11286;45.596;5.284;2022-12-18T16:21:42;11.57;;;9.55;;
22234;SDS011;11286;45.596;5.284;2022-12-18T16:24:18;11.05;;;8.05;;
22234;SDS011;11286;45.596;5.284;2022-12-18T16:26:51;13.70;;;10.35;;
22234;SDS011;11286;45.596;5.284;2022-12-18T16:29:18;12.02;;;8.85;;
22234;SDS011;11286;45.596;5.284;2022-12-18T16:31:44;11.73;;;10.30;;
22234;SDS011;11286;45.596;5.284;2022-12-18T16:34:19;14.35;;;9.82;;
22234;SDS011;11286;45.596;5.284;2022-12-18T16:36:50;12.18;;;9.85;;
22234;SDS011;11286;45.596;5.284;2022-12-18T16:39:18;11.98;;;9.55;;
22234;SDS011;11286;45.596;5.284;2022-12-18T16:41:44;13.40;;;10.10;;
22234;SDS011;11286;45.596;5.284;2022-12-18T16:44:10;11.55;;;9.93;;
22234;SDS011;11286;45.596;5.284;2022-12-18T16:46:37;12.88;;;9.57;;